Cuervo, New Mexico
Current Conditions -  °F | °C
As of 10:53 PM on Thursday 30 Oct 2014 (Local Time) from KTCC Reporting Station
Clear Clear  
Wind Chill: 43°   Ceiling: Unl
Heat Index: 47°   Visibility: 10mi
Dew Point: 25°   Wind: 8mph
Humidity: 42%   Direction: 80°E
Pressure: 30.36"   Gusts: NA
Location:  35.03°N, 104.41°W
Report Text: KTCC 310453Z AUTO 08007KT 10SM CLR 08/M04 A3036 RMK AO2 SLP249 T00831039
Loading
Personal Weather Stations






























Interactive Weather Map
Tropical Storm Tracking
New forecast layout! Learn more

10-Day Weather Forecast

Advertisements
Track Severe Weather on mobile